TOURFACTS.DK  
Stats and Facts from Tour de France.

Tour de France 2019 starts in 354 days
  Riders   Stages   Teams   Summits   Yearly  


 
Search by year

After 2018 - Stage 9:
 15000 starters.
  5163 different riders.
  639 teams.
  2241 stages.
  456 restdays.
  441138.60 km.
  5662 abandonnees.


Top 3
GC
Christopher Froome86:20:55
Rigoberto Urán86:21:49
Romain Bardet86:23:15
Climb
Warren Barguil169 pt.
Primoz Roglic80 pt.
Thomas De Gendt64 pt.
Sprint
Michael Matthews359 pt.
André Greipel234 pt.
Edvald Boasson Hagen220 pt.
Youth
Simon Yates86:27:09
Louis Meintjes86:29:15
Emanuel Buchmann86:54:16
Facts from Tour de France 1964
  |   Stages.  |   Stage winners.  |   Days in yellow  |   Average speed.  |   Route.  |   Teams.  |   All riders.  |   Rookies.  |  

  |   Withdrawls.  |   GC.  |   Polka  |   Green  |   White  |   Summits. (In tour)  |   Miscellaneous.  |  

Stage 3b on June 24th. 1964
         Owning:    Bernard Van De Kerckhove    
Pick a stage:  1 2 3a 3b 4 5 6 7 8 9 10a 10b 11 12 13 14 15 16 17 18 19 20 21 22a 22b
  ForestForest | Dist: 21.30 km.

Average speed for all riders in stage:  39,874 km./hr.
    Place:Name:Team:Time:Km/h:
ESPAntonio BarrutiaESPKas-Kaskol00:31:23  +  00:00:00=40,722 
ESPSebastián ElorzaESPKas-Kaskol00:31:23  +  00:00:00=40,722 
ESPCarlos EcheverríaESPKas-Kaskol00:31:23  +  00:00:00=40,722 
4 ESPFrancisco GabicESPKas-Kaskol00:31:23  +  00:00:00=40,722 
5 ESPJulio JiménezESPKas-Kaskol00:31:23  +  00:00:00=40,722 
6 ESPJosé MomeñeESPKas-Kaskol00:31:23  +  00:00:00=40,722 
7 ESPMiguel MartinESPKas-Kaskol00:31:23  +  00:00:00=40,722 
8 ESPJoaquin GaleraESPKas-Kaskol00:31:23  +  00:00:00=40,722 
9 ESPJuan UribezubiaESPKas-Kaskol00:31:23  +  00:00:00=40,722 
10 ESPEusebio VelezESPKas-Kaskol00:31:23  +  00:00:00=40,722 
11 FRAHenri AngladeFRAPelforth-Sauvage-Lejeune-Wolbe..00:31:26  +  00:00:03=40,657 
12 FRAEdouard DelbergheFRAPelforth-Sauvage-Lejeune-Wolbe..00:31:26  +  00:00:03=40,657 
13 FRAGuy EpaudFRAPelforth-Sauvage-Lejeune-Wolbe..00:31:26  +  00:00:03=40,657 
14 ALGHubert FerrerFRAPelforth-Sauvage-Lejeune-Wolbe..00:31:26  +  00:00:03=40,657 
15 FRAAndré FoucherFRAPelforth-Sauvage-Lejeune-Wolbe..00:31:26  +  00:00:03=40,657 
16 FRAJoseph GroussardFRAPelforth-Sauvage-Lejeune-Wolbe..00:31:26  +  00:00:03=40,657 
17 FRAGeorges GroussardFRAPelforth-Sauvage-Lejeune-Wolbe..00:31:26  +  00:00:03=40,657 
18 NEDJan JanssenFRAPelforth-Sauvage-Lejeune-Wolbe..00:31:26  +  00:00:03=40,657 
19 FRAJean-Claude LefebvreFRAPelforth-Sauvage-Lejeune-Wolbe..00:31:26  +  00:00:03=40,657 
20 FRAFrançois MahéFRAPelforth-Sauvage-Lejeune-Wolbe..00:31:26  +  00:00:03=40,657 
21 BELWilly MontyFRAPelforth-Sauvage-Lejeune-Wolbe..00:31:26  +  00:00:03=40,657 
22 BELBenoni BeheytBELWiel´s-Groene Leeuw00:31:30  +  00:00:07=40,571 
23 BELJean-Baptiste ClaesBELWiel´s-Groene Leeuw00:31:30  +  00:00:07=40,571 
24 BELGilbert Desmet 1BELWiel´s-Groene Leeuw00:31:30  +  00:00:07=40,571 
25 BELGilbert Desmet 2BELWiel´s-Groene Leeuw00:31:30  +  00:00:07=40,571 
26 GERHans JunkermannBELWiel´s-Groene Leeuw00:31:30  +  00:00:07=40,571 
27 GERKarl-Heinz KundeBELWiel´s-Groene Leeuw00:31:30  +  00:00:07=40,571 
28 BELYvo MolenaersBELWiel´s-Groene Leeuw00:31:30  +  00:00:07=40,571 
29 BELJozef TimmermanBELWiel´s-Groene Leeuw00:31:30  +  00:00:07=40,571 
30 BELRené Van MeenenBELWiel´s-Groene Leeuw00:31:30  +  00:00:07=40,571 
31 BELFrans VerbeeckBELWiel´s-Groene Leeuw00:31:30  +  00:00:07=40,571 
32 ENGMichael WrightBELWiel´s-Groene Leeuw00:31:30  +  00:00:07=40,571 
33 BELArthur DecabooterBELSolo-Superia00:31:37  +  00:00:14=40,422 
34 ENGVic DensonBELSolo-Superia00:31:37  +  00:00:14=40,422 
35 BELWilly DerbovenBELSolo-Superia00:31:37  +  00:00:14=40,422 
36 BELArmand DesmetBELSolo-Superia00:31:37  +  00:00:14=40,422 
37 BELHenri De WolfBELSolo-Superia00:31:37  +  00:00:14=40,422 
38 BELLouis ProostBELSolo-Superia00:31:37  +  00:00:14=40,422 
39 BELEdward SelsBELSolo-Superia00:31:37  +  00:00:14=40,422 
40 BELEdgard SorgeloosBELSolo-Superia00:31:37  +  00:00:14=40,422 
41 BELMichel Van AerdeBELSolo-Superia00:31:37  +  00:00:14=40,422 
42 BELBernard Van De KerckhoveBELSolo-Superia00:31:37  +  00:00:14=40,422 
43 ESPJosé BernardezESPFerrys00:31:48  +  00:00:25=40,189 
44 ESPAntonio BertranESPFerrys00:31:48  +  00:00:25=40,189 
45 ESPRogelio HernandezESPFerrys00:31:48  +  00:00:25=40,189 
46 ESPSalvador HonrubiaESPFerrys00:31:48  +  00:00:25=40,189 
47 ESPFernando ManzanequeESPFerrys00:31:48  +  00:00:25=40,189 
48 ESPGabriel MasESPFerrys00:31:48  +  00:00:25=40,189 
49 ESPLuis OtañoESPFerrys00:31:48  +  00:00:25=40,189 
50 ESPMiguel PachecoESPFerrys00:31:48  +  00:00:25=40,189 
51 ESPJosé Pérez FrancésESPFerrys00:31:48  +  00:00:25=40,189 
52 ESPRaúl ReyESPFerrys00:31:48  +  00:00:25=40,189 
53 ESPFRAsco SuñéESPFerrys00:31:48  +  00:00:25=40,189 
54 BELFrans AerenhoutsFRAMercier-BP-Hutchinson00:31:51  +  00:00:28=40,126 
55 FRARobert CazalaFRAMercier-BP-Hutchinson00:31:51  +  00:00:28=40,126 
56 FRAJean GaincheFRAMercier-BP-Hutchinson00:31:51  +  00:00:28=40,126 
57 FRAJean-Pierre GenetFRAMercier-BP-Hutchinson00:31:51  +  00:00:28=40,126 
58 ENGBarry HobanFRAMercier-BP-Hutchinson00:31:51  +  00:00:28=40,126 
59 FRAAndré Le DissezFRAMercier-BP-Hutchinson00:31:51  +  00:00:28=40,126 
60 BELFrans MelckenbeeckFRAMercier-BP-Hutchinson00:31:51  +  00:00:28=40,126 
61 FRARaymond PoulidorFRAMercier-BP-Hutchinson00:31:51  +  00:00:28=40,126 
62 FRARobert PoulotFRAMercier-BP-Hutchinson00:31:51  +  00:00:28=40,126 
63 BELVictor Van SchilFRAMercier-BP-Hutchinson00:31:51  +  00:00:28=40,126 
64 FRAPaul VermeulenFRAMercier-BP-Hutchinson00:31:51  +  00:00:28=40,126 
65 BELFerdinand BrackeFRAPeugeot-BP-Englebert00:31:55  +  00:00:32=40,042 
66 FRAHenry DuezFRAPeugeot-BP-Englebert00:31:55  +  00:00:32=40,042 
67 FRAFrancois HamonFRAPeugeot-BP-Englebert00:31:55  +  00:00:32=40,042 
68 FRAPierre Le MellecFRAPeugeot-BP-Englebert00:31:55  +  00:00:32=40,042 
69 FRACamille Le MennFRAPeugeot-BP-Englebert00:31:55  +  00:00:32=40,042 
70 FRARaymond MastrottoFRAPeugeot-BP-Englebert00:31:55  +  00:00:32=40,042 
71 BELEmile DaemsFRAPeugeot-BP-Englebert00:31:55  +  00:00:32=40,042 
72 FRAMichel NedelecFRAPeugeot-BP-Englebert00:31:55  +  00:00:32=40,042 
73 FRAGuy SeyveFRAPeugeot-BP-Englebert00:31:55  +  00:00:32=40,042 
74 ENGTom SimpsonFRAPeugeot-BP-Englebert00:31:55  +  00:00:32=40,042 
75 BELGeorges Van ConingslooFRAPeugeot-BP-Englebert00:31:55  +  00:00:32=40,042 
76 FRAJacques AnquetilFRASaint Raphael-Gitane-Campagnol..00:31:56  +  00:00:33=40,021 
77 GERRudi AltigFRASaint Raphael-Gitane-Campagnol..00:31:56  +  00:00:33=40,021 
78 NEDJo De RooFRASaint Raphael-Gitane-Campagnol..00:31:56  +  00:00:33=40,021 
79 IRLSeamus ElliottFRASaint Raphael-Gitane-Campagnol..00:31:56  +  00:00:33=40,021 
80 FRAPierre EveraertFRASaint Raphael-Gitane-Campagnol..00:31:56  +  00:00:33=40,021 
81 NEDAlbertus GeldermansFRASaint Raphael-Gitane-Campagnol..00:31:56  +  00:00:33=40,021 
82 FRAJean-Claude LebaubeFRASaint Raphael-Gitane-Campagnol..00:31:56  +  00:00:33=40,021 
83 FRAAnatole NovakFRASaint Raphael-Gitane-Campagnol..00:31:56  +  00:00:33=40,021 
84 FRALouis RostollanFRASaint Raphael-Gitane-Campagnol..00:31:56  +  00:00:33=40,021 
85 FRAJean StablinskiFRASaint Raphael-Gitane-Campagnol..00:31:56  +  00:00:33=40,021 
86 FRAAndré ZimmermannFRASaint Raphael-Gitane-Campagnol..00:31:56  +  00:00:33=40,021 
87 ITAVittorio AdorniITASalvarani00:32:17  +  00:00:54=39,587 
88 ITABattista BabiniITASalvarani00:32:17  +  00:00:54=39,587 
89 ITAErcole BaldiniITASalvarani00:32:17  +  00:00:54=39,587 
90 ITABruno FantinatoITASalvarani00:32:17  +  00:00:54=39,587 
91 ITAAntonio FranchiITASalvarani00:32:17  +  00:00:54=39,587 
92 ITAItalo MazzacuratiITASalvarani00:32:17  +  00:00:54=39,587 
93 ITAMario MinieriITASalvarani00:32:17  +  00:00:54=39,587 
94 ITAArnaldo PambiancoITASalvarani00:32:17  +  00:00:54=39,587 
95 ITARomano PiancastelliITASalvarani00:32:17  +  00:00:54=39,587 
96 ITAVito TacconeITASalvarani00:32:17  +  00:00:54=39,587 
97 FRAJean AnastasiFRAMargnat-Paloma-Dunlop00:32:39  +  00:01:16=39,142 
98 ESPFederico BahamontesFRAMargnat-Paloma-Dunlop00:32:39  +  00:01:16=39,142 
99 FRAAndré DarrigadeFRAMargnat-Paloma-Dunlop00:32:39  +  00:01:16=39,142 
100 FRAJacques GestraudFRAMargnat-Paloma-Dunlop00:32:39  +  00:01:16=39,142 
101 FRAJean GraczykFRAMargnat-Paloma-Dunlop00:32:39  +  00:01:16=39,142 
102 ESPEsteban MartinFRAMargnat-Paloma-Dunlop00:32:39  +  00:01:16=39,142 
103 FRAClaude MattioFRAMargnat-Paloma-Dunlop00:32:39  +  00:01:16=39,142 
104 FRAJean MilesiFRAMargnat-Paloma-Dunlop00:32:39  +  00:01:16=39,142 
105 FRAJoseph NovalesFRAMargnat-Paloma-Dunlop00:32:39  +  00:01:16=39,142 
106 BELEddy PauwelsFRAMargnat-Paloma-Dunlop00:32:39  +  00:01:16=39,142 
107 ESPJosé SeguFRAMargnat-Paloma-Dunlop00:32:39  +  00:01:16=39,142 
108 BELWilly BocklantBELFlandria-Romeo00:33:00  +  00:01:37=38,727 
109 BELWalter BoucquetBELFlandria-Romeo00:33:00  +  00:01:37=38,727 
110 BELFrans BrandsBELFlandria-Romeo00:33:00  +  00:01:37=38,727 
111 BELJos HoevenaersBELFlandria-Romeo00:33:00  +  00:01:37=38,727 
112 BELMarcel OngenaeBELFlandria-Romeo00:33:00  +  00:01:37=38,727 
113 BELJoseph PlanckaertBELFlandria-Romeo00:33:00  +  00:01:37=38,727 
114 BELClément RomanBELFlandria-Romeo00:33:00  +  00:01:37=38,727 
115 BELWilly VannitsenBELFlandria-Romeo00:33:00  +  00:01:37=38,727 
116 BELGuillaume Van TongerlooBELFlandria-Romeo00:33:00  +  00:01:37=38,727 
117 BELCamiel VynckeBELFlandria-Romeo00:33:00  +  00:01:37=38,727 
118 NEDHuub ZilverbergBELFlandria-Romeo00:33:00  +  00:01:37=38,727 
119 NEDPiet DamenNLDTelevisier00:33:10  +  00:01:47=38,533 
120 NEDJo de HaanNLDTelevisier00:33:10  +  00:01:47=38,533 
121 NEDCees HaastNLDTelevisier00:33:10  +  00:01:47=38,533 
122 NEDAlphonse SteutenNLDTelevisier00:33:10  +  00:01:47=38,533 
123 NEDHenk NijdamNLDTelevisier00:33:10  +  00:01:47=38,533 
124 NEDAndre van AertNLDTelevisier00:33:10  +  00:01:47=38,533 
125 NEDJacques van der KlundertNLDTelevisier00:33:10  +  00:01:47=38,533 
126 NEDLeo van DongenNLDTelevisier00:33:10  +  00:01:47=38,533 
127 NEDCees van EspenNLDTelevisier00:33:10  +  00:01:47=38,533 
128 NEDPiet van EstNLDTelevisier00:33:10  +  00:01:47=38,533 
129 BELRik WoutersNLDTelevisier00:33:10  +  00:01:47=38,533 


Todays birthdays.

1876  Frédéric Rigaux
1896  Federico Gay
1901  Paul Delbart
1944  Jean-Pierre Ducasse
1948  Marc Lievens
1961  Willem Wijnant
1964  Miguel Indurain
1965  Gianni Faresin
1973  Stefano Garzelli
1982  André Greipel
1984  Alan Marangoni




Visits: